Rochester, New Hampshire
Current Conditions -  °F | °C
As of 12:51 PM on Monday 26 Jan 2015 (Local Time) from KDAW Reporting Station
Clear Clear  
Wind Chill:   Ceiling: Unl
Heat Index: 18°   Visibility: 10mi
Dew Point: -2°   Wind: 9mph
Humidity: 41%   Direction: 80°E
Pressure: 30.12"   Gusts: NA
Location:  43.31°N, 70.98°W
Report Text: KDAW 261751Z AUTO 08008KT 10SM CLR M08/M19 A3012 RMK AO2 SLP201 T10781189 11072 21189 58016
Loading
Personal Weather Stations






























Interactive Weather Map New forecast layout! Learn more

10-Day Weather Forecast

Advertisements
Track Severe Weather on mobile